createdAt,value
2023-05-19T00:02:20.985Z,4.80
2023-05-19T00:04:52.325Z,4.50
2023-05-19T00:07:27.113Z,4.10
2023-05-19T00:09:58.304Z,3.80
2023-05-19T00:12:29.542Z,4.10
2023-05-19T00:15:00.592Z,4.30
2023-05-19T00:17:31.053Z,4.40
2023-05-19T00:20:01.562Z,4.30
2023-05-19T00:22:31.941Z,6.10
2023-05-19T00:25:02.332Z,4.20
2023-05-19T00:27:32.638Z,4.00
2023-05-19T00:30:02.989Z,3.30
2023-05-19T00:32:33.382Z,5.00
2023-05-19T00:35:03.740Z,2.80
2023-05-19T00:37:34.189Z,4.60
2023-05-19T00:40:06.251Z,5.20
2023-05-19T00:42:36.708Z,3.60
2023-05-19T00:45:08.836Z,2.80
2023-05-19T00:47:39.350Z,5.10
2023-05-19T00:50:11.458Z,2.70
2023-05-19T00:52:41.981Z,3.50
2023-05-19T00:55:13.963Z,5.10
2023-05-19T00:57:45.402Z,3.10
2023-05-19T01:00:18.285Z,4.20
2023-05-19T01:02:50.370Z,2.60
2023-05-19T01:05:20.906Z,3.90
2023-05-19T01:07:53.644Z,2.90
2023-05-19T01:10:24.133Z,3.20
2023-05-19T01:12:54.505Z,3.20
2023-05-19T01:15:26.725Z,4.20
2023-05-19T01:18:07.461Z,4.30
2023-05-19T01:20:46.511Z,5.80
2023-05-19T01:23:29.834Z,4.40
2023-05-19T01:26:18.755Z,3.10
2023-05-19T01:29:31.475Z,3.60
2023-05-19T01:32:04.997Z,4.90
2023-05-19T01:34:36.202Z,3.70
2023-05-19T01:37:08.931Z,4.90
2023-05-19T01:39:41.469Z,3.60
2023-05-19T01:42:12.883Z,3.90
2023-05-19T01:44:44.140Z,4.40
2023-05-19T01:47:15.454Z,3.50
2023-05-19T01:49:46.697Z,2.80
2023-05-19T01:52:17.062Z,3.10
2023-05-19T01:54:47.472Z,3.40
2023-05-19T01:57:25.854Z,3.40
2023-05-19T02:00:05.669Z,3.00
2023-05-19T02:02:55.103Z,4.70
2023-05-19T02:05:34.740Z,4.00
2023-05-19T02:08:13.065Z,3.50
2023-05-19T02:10:48.896Z,2.90
2023-05-19T02:13:21.974Z,3.50
2023-05-19T02:15:55.496Z,2.90
2023-05-19T02:18:26.203Z,3.00
2023-05-19T02:20:56.563Z,4.50
2023-05-19T02:23:28.237Z,5.00
2023-05-19T02:26:01.447Z,2.70
2023-05-19T02:28:31.869Z,3.60
2023-05-19T02:31:02.652Z,2.50
2023-05-19T02:33:33.147Z,4.40
2023-05-19T02:36:03.534Z,4.00
2023-05-19T02:38:33.906Z,3.70
2023-05-19T02:41:04.208Z,3.50
2023-05-19T02:43:34.579Z,3.30
2023-05-19T02:46:05.002Z,5.10
2023-05-19T02:48:35.467Z,4.40
2023-05-19T02:51:07.362Z,5.30
2023-05-19T02:53:37.786Z,3.60
2023-05-19T02:56:08.823Z,5.10
2023-05-19T02:58:39.552Z,3.30
2023-05-19T03:01:10.096Z,2.50
2023-05-19T03:03:40.543Z,4.30
2023-05-19T03:06:11.465Z,4.40
2023-05-19T03:08:42.511Z,4.70
2023-05-19T03:11:13.062Z,3.30
2023-05-19T03:13:43.493Z,4.80
2023-05-19T03:16:14.031Z,3.30
2023-05-19T03:18:45.779Z,5.20
2023-05-19T03:21:16.278Z,3.50
2023-05-19T03:23:47.182Z,3.10
2023-05-19T03:26:17.551Z,5.10
2023-05-19T03:28:48.575Z,3.90
2023-05-19T03:31:18.986Z,5.10
2023-05-19T03:33:49.473Z,6.10
2023-05-19T03:36:19.794Z,2.60
2023-05-19T03:38:50.672Z,3.50
2023-05-19T03:41:21.136Z,3.10
2023-05-19T03:43:51.592Z,5.70
2023-05-19T03:46:22.137Z,3.80
2023-05-19T03:49:11.458Z,4.10
2023-05-19T03:52:03.373Z,3.80
2023-05-19T03:54:57.745Z,4.10
2023-05-19T03:57:29.810Z,4.10
2023-05-19T04:00:00.291Z,4.50
2023-05-19T04:02:31.714Z,3.10
2023-05-19T04:05:04.868Z,4.70
2023-05-19T04:07:35.979Z,2.60
2023-05-19T04:10:08.439Z,3.80
2023-05-19T04:12:38.836Z,4.60
2023-05-19T04:15:12.382Z,5.40
2023-05-19T04:17:44.399Z,4.60
2023-05-19T04:20:15.903Z,4.20
2023-05-19T04:22:46.345Z,4.90
2023-05-19T04:25:16.770Z,6.70
2023-05-19T04:27:48.274Z,4.80
2023-05-19T04:30:22.610Z,4.80
2023-05-19T04:32:54.032Z,3.70
2023-05-19T04:35:24.504Z,4.60
2023-05-19T04:37:55.773Z,3.70
2023-05-19T04:40:31.421Z,3.80
2023-05-19T04:43:02.986Z,4.50
2023-05-19T04:45:34.194Z,3.80
2023-05-19T04:48:06.120Z,2.60
2023-05-19T04:50:38.655Z,3.60
2023-05-19T04:53:09.185Z,5.70
2023-05-19T04:55:39.975Z,3.90
2023-05-19T04:58:10.850Z,5.00
2023-05-19T05:00:41.407Z,6.70
2023-05-19T05:03:14.685Z,4.80
2023-05-19T05:05:45.690Z,3.70
2023-05-19T05:08:22.847Z,4.30
2023-05-19T05:10:55.468Z,3.10
2023-05-19T05:13:27.059Z,3.70
2023-05-19T05:15:58.583Z,3.40
2023-05-19T05:18:30.629Z,2.80
2023-05-19T05:21:01.867Z,4.70
2023-05-19T05:23:33.801Z,2.40
2023-05-19T05:26:10.650Z,4.80
2023-05-19T05:28:42.527Z,2.80
2023-05-19T05:31:12.989Z,3.10
2023-05-19T05:33:44.183Z,2.60
2023-05-19T05:36:14.859Z,3.30
2023-05-19T05:38:45.479Z,2.60
2023-05-19T05:41:16.609Z,2.60
2023-05-19T05:43:47.295Z,1.90
2023-05-19T05:46:17.696Z,2.20
2023-05-19T05:48:49.353Z,3.50
2023-05-19T05:51:22.312Z,2.60
2023-05-19T05:53:55.778Z,3.80
2023-05-19T05:56:33.844Z,2.20
2023-05-19T05:59:05.814Z,3.80
2023-05-19T06:01:37.942Z,5.10
2023-05-19T06:04:10.128Z,3.10
2023-05-19T06:06:41.253Z,2.50
2023-05-19T06:09:12.536Z,3.10
2023-05-19T06:11:43.051Z,1.70
2023-05-19T06:14:13.770Z,2.80
2023-05-19T06:16:54.273Z,3.40
2023-05-19T06:19:25.773Z,5.60
2023-05-19T06:21:56.377Z,3.40
2023-05-19T06:24:27.038Z,5.80
2023-05-19T06:26:57.487Z,2.50
2023-05-19T06:29:28.453Z,4.80
2023-05-19T06:31:59.781Z,3.40
2023-05-19T06:34:30.497Z,3.60
2023-05-19T06:37:02.377Z,6.70
2023-05-19T06:39:34.950Z,4.50
2023-05-19T06:42:06.178Z,4.80
2023-05-19T06:45:15.427Z,3.60
2023-05-19T06:47:45.922Z,3.20
2023-05-19T06:50:16.737Z,7.80
2023-05-19T06:52:47.733Z,6.50
2023-05-19T06:55:18.299Z,4.10
2023-05-19T06:57:48.698Z,6.20
2023-05-19T07:00:23.079Z,4.10
2023-05-19T07:03:02.747Z,6.40
2023-05-19T07:05:33.229Z,3.60
2023-05-19T07:08:05.105Z,8.40
2023-05-19T07:10:35.907Z,5.70
2023-05-19T07:13:09.205Z,3.20
2023-05-19T07:15:40.178Z,5.60
2023-05-19T07:18:10.778Z,3.60
2023-05-19T07:20:41.249Z,4.60
2023-05-19T07:23:11.584Z,4.40
2023-05-19T07:25:42.562Z,4.40
2023-05-19T07:28:14.640Z,2.40
2023-05-19T07:30:45.833Z,2.60
2023-05-19T07:33:16.519Z,4.30
2023-05-19T07:35:47.109Z,6.60
2023-05-19T07:38:18.731Z,5.50
2023-05-19T07:40:49.251Z,7.60
2023-05-19T07:43:19.599Z,5.20
2023-05-19T07:45:50.044Z,2.70
2023-05-19T07:48:22.578Z,3.00
2023-05-19T07:50:53.528Z,2.90
2023-05-19T07:53:23.984Z,5.10
2023-05-19T07:55:55.473Z,3.60
2023-05-19T07:58:27.746Z,3.20
2023-05-19T08:00:59.732Z,3.80
2023-05-19T08:03:30.599Z,3.00
2023-05-19T08:06:01.230Z,3.80
2023-05-19T08:08:33.475Z,4.90
2023-05-19T08:11:06.649Z,2.20
2023-05-19T08:13:37.118Z,3.90
2023-05-19T08:16:08.457Z,2.20
2023-05-19T08:18:39.199Z,4.00
2023-05-19T08:21:09.619Z,2.90
2023-05-19T08:23:40.022Z,2.70
2023-05-19T08:26:10.479Z,2.00
2023-05-19T08:28:41.650Z,4.30
2023-05-19T08:31:12.033Z,3.70
2023-05-19T08:33:42.630Z,3.70
2023-05-19T08:36:13.068Z,4.30
2023-05-19T08:38:43.569Z,3.80
2023-05-19T08:41:14.029Z,3.70
2023-05-19T08:43:45.764Z,2.60
2023-05-19T08:46:17.490Z,3.40
2023-05-19T08:48:53.205Z,3.10
2023-05-19T08:51:33.838Z,3.20
2023-05-19T08:54:10.436Z,3.60
2023-05-19T08:56:41.531Z,3.60
2023-05-19T08:59:13.157Z,2.80
2023-05-19T09:01:46.404Z,4.40
2023-05-19T09:04:18.063Z,3.80
2023-05-19T09:06:48.580Z,3.20
2023-05-19T09:09:18.975Z,3.10
2023-05-19T09:11:49.821Z,4.20
2023-05-19T09:14:20.155Z,4.30
2023-05-19T09:16:52.803Z,6.70
2023-05-19T09:19:23.294Z,2.90
2023-05-19T09:22:03.258Z,2.90
2023-05-19T09:24:34.963Z,5.40
2023-05-19T09:27:05.878Z,3.30
2023-05-19T09:29:36.594Z,5.50
2023-05-19T09:32:08.158Z,4.00
2023-05-19T09:34:43.992Z,4.80
2023-05-19T09:37:15.941Z,2.90
2023-05-19T09:39:49.259Z,2.90
2023-05-19T09:42:25.018Z,4.40
2023-05-19T09:45:02.516Z,3.30
2023-05-19T09:47:38.447Z,2.80
2023-05-19T09:50:11.379Z,8.10
2023-05-19T09:52:44.655Z,3.90
2023-05-19T09:55:15.828Z,4.10
2023-05-19T09:57:47.583Z,2.80
2023-05-19T10:00:20.955Z,3.50
2023-05-19T10:02:52.350Z,6.20
2023-05-19T10:05:23.278Z,6.00
2023-05-19T10:07:55.229Z,5.90
2023-05-19T10:10:26.353Z,4.30
2023-05-19T10:12:57.078Z,6.40
2023-05-19T10:15:27.675Z,3.60
2023-05-19T10:17:59.447Z,4.00
2023-05-19T10:20:30.493Z,3.90
2023-05-19T10:23:02.953Z,5.50
2023-05-19T10:25:36.537Z,3.40
2023-05-19T10:28:11.242Z,5.20
2023-05-19T10:30:46.005Z,6.70
2023-05-19T10:33:19.995Z,4.20
2023-05-19T10:36:09.073Z,5.00
2023-05-19T10:38:53.403Z,4.10
2023-05-19T10:41:29.676Z,6.20
2023-05-19T10:44:11.046Z,6.30
2023-05-19T10:46:43.236Z,6.10
2023-05-19T10:49:22.974Z,4.10
2023-05-19T10:51:56.765Z,6.70
2023-05-19T10:54:50.060Z,9.00
2023-05-19T10:57:21.336Z,8.40
2023-05-19T10:59:51.701Z,4.00
2023-05-19T11:02:43.101Z,6.90
2023-05-19T11:05:16.645Z,5.70
2023-05-19T11:07:56.283Z,7.70
2023-05-19T11:10:27.216Z,6.30
2023-05-19T11:12:59.423Z,6.00
2023-05-19T11:15:30.344Z,6.80
2023-05-19T11:18:04.011Z,5.80
2023-05-19T11:20:39.840Z,6.80
2023-05-19T11:23:11.735Z,7.40
2023-05-19T11:25:47.845Z,5.70
2023-05-19T11:28:25.662Z,9.00
2023-05-19T11:30:57.764Z,4.10
2023-05-19T11:33:29.189Z,4.20
2023-05-19T11:35:59.625Z,5.40
2023-05-19T11:38:31.011Z,5.50
2023-05-19T11:41:01.467Z,5.00
2023-05-19T11:43:31.914Z,6.80
2023-05-19T11:46:02.364Z,5.90
2023-05-19T11:48:32.974Z,5.40
2023-05-19T11:51:04.052Z,7.90
2023-05-19T11:53:36.176Z,5.30
2023-05-19T11:56:07.644Z,4.80
2023-05-19T11:58:39.664Z,5.00
2023-05-19T12:01:11.248Z,6.20
2023-05-19T12:03:41.764Z,8.50
2023-05-19T12:06:17.383Z,3.60
2023-05-19T12:08:47.964Z,4.40
2023-05-19T12:11:20.059Z,4.60
2023-05-19T12:13:54.629Z,4.10
2023-05-19T12:16:25.235Z,5.90
2023-05-19T12:18:57.855Z,4.90
2023-05-19T12:21:34.335Z,6.90
2023-05-19T12:24:06.650Z,4.00
2023-05-19T12:26:37.966Z,7.00
2023-05-19T12:29:08.886Z,7.40
2023-05-19T12:31:39.750Z,6.70
2023-05-19T12:34:10.311Z,5.60
2023-05-19T12:36:42.182Z,7.10
2023-05-19T12:39:13.734Z,5.00
2023-05-19T12:41:47.328Z,5.40
2023-05-19T12:44:19.088Z,8.60
2023-05-19T12:46:52.991Z,7.60
2023-05-19T12:49:23.461Z,5.10
2023-05-19T12:51:55.641Z,6.00
2023-05-19T12:54:26.313Z,9.50
2023-05-19T12:56:58.776Z,6.40
2023-05-19T12:59:38.344Z,5.70
2023-05-19T13:02:09.545Z,5.40
2023-05-19T13:04:40.104Z,5.50
2023-05-19T13:07:10.575Z,8.10
2023-05-19T13:09:40.945Z,7.00
2023-05-19T13:12:11.592Z,8.10
2023-05-19T13:14:43.662Z,7.60
2023-05-19T13:17:14.018Z,6.90
2023-05-19T13:19:44.395Z,11.00
2023-05-19T13:22:15.144Z,12.30
2023-05-19T13:24:45.505Z,9.60
2023-05-19T13:27:15.850Z,9.30
2023-05-19T13:29:46.140Z,12.10
2023-05-19T13:32:16.702Z,8.60
2023-05-19T13:34:47.142Z,10.10
2023-05-19T13:37:17.568Z,9.40
2023-05-19T13:39:47.933Z,10.20
2023-05-19T13:42:18.559Z,8.90
2023-05-19T13:44:49.411Z,10.30
2023-05-19T13:47:20.033Z,9.70
2023-05-19T13:49:50.662Z,12.10
2023-05-19T13:52:21.382Z,8.00
2023-05-19T13:54:54.508Z,9.80
2023-05-19T13:57:26.480Z,11.70
2023-05-19T14:00:03.333Z,12.40
2023-05-19T14:02:44.484Z,10.90
2023-05-19T14:05:14.962Z,10.50
2023-05-19T14:07:45.533Z,10.00
2023-05-19T14:10:16.387Z,15.20
2023-05-19T14:13:12.391Z,8.90
2023-05-19T14:15:38.334Z,10.40
2023-05-19T14:18:09.028Z,8.90
2023-05-19T14:20:39.438Z,15.70
2023-05-19T14:23:09.824Z,11.50
2023-05-19T14:25:40.293Z,10.90
2023-05-19T14:28:11.628Z,10.90
2023-05-19T14:30:42.542Z,11.40
2023-05-19T14:33:13.194Z,12.60
2023-05-19T14:35:43.959Z,10.40
2023-05-19T14:38:15.381Z,10.30
2023-05-19T14:40:48.492Z,11.70
2023-05-19T14:43:19.215Z,9.40
2023-05-19T14:45:52.074Z,10.40
2023-05-19T14:48:23.419Z,13.60
2023-05-19T14:50:54.088Z,11.30
2023-05-19T14:53:24.905Z,10.20
2023-05-19T14:55:55.290Z,9.20
2023-05-19T14:58:28.230Z,8.80
2023-05-19T15:01:00.975Z,11.30
2023-05-19T15:03:31.443Z,11.20
2023-05-19T15:06:01.923Z,11.90
2023-05-19T15:08:32.333Z,14.30
2023-05-19T15:11:02.661Z,12.40
2023-05-19T15:13:33.051Z,12.60
2023-05-19T15:16:16.190Z,11.50
2023-05-19T15:18:47.688Z,12.50
2023-05-19T15:21:18.460Z,14.30
2023-05-19T15:23:48.956Z,13.50
2023-05-19T15:26:19.352Z,12.20
2023-05-19T15:28:49.637Z,16.70
2023-05-19T15:31:20.101Z,17.80
2023-05-19T15:33:50.554Z,14.70
2023-05-19T15:36:20.953Z,15.30
2023-05-19T15:38:51.343Z,13.60
2023-05-19T15:41:21.938Z,14.20
2023-05-19T15:43:53.365Z,15.30
2023-05-19T15:46:24.160Z,18.80
2023-05-19T15:48:54.664Z,13.90
2023-05-19T15:51:25.250Z,13.70
2023-05-19T15:53:55.617Z,12.70
2023-05-19T15:56:26.038Z,14.50
2023-05-19T15:58:56.468Z,18.00
2023-05-19T16:01:27.354Z,16.50
2023-05-19T16:03:57.950Z,14.50
2023-05-19T16:06:28.584Z,15.20
2023-05-19T16:08:59.054Z,15.30
2023-05-19T16:11:29.801Z,14.30
2023-05-19T16:14:00.247Z,15.80
2023-05-19T16:16:30.682Z,13.10
2023-05-19T16:19:01.223Z,13.80
2023-05-19T16:21:32.178Z,13.30
2023-05-19T16:24:02.581Z,15.50
2023-05-19T16:26:34.406Z,11.70
2023-05-19T16:29:04.963Z,14.30
2023-05-19T16:31:35.393Z,13.20
2023-05-19T16:34:05.830Z,13.30
2023-05-19T16:36:36.502Z,13.90
2023-05-19T16:39:07.009Z,12.00
2023-05-19T16:41:37.529Z,12.50
2023-05-19T16:44:08.059Z,10.00
2023-05-19T16:46:38.470Z,12.30
2023-05-19T16:49:09.125Z,11.00
2023-05-19T16:51:39.505Z,10.60
2023-05-19T16:54:09.842Z,13.30
2023-05-19T16:56:40.226Z,10.00
2023-05-19T16:59:11.593Z,9.40
2023-05-19T17:01:42.036Z,9.80
2023-05-19T17:04:13.331Z,9.30
2023-05-19T17:06:43.914Z,9.40
2023-05-19T17:09:14.338Z,10.90
2023-05-19T17:11:44.814Z,12.40
2023-05-19T17:14:15.340Z,9.80
2023-05-19T17:16:45.740Z,11.30
2023-05-19T17:19:16.962Z,14.40
2023-05-19T17:21:47.377Z,11.60
2023-05-19T17:24:17.758Z,10.40
2023-05-19T17:26:48.113Z,11.50
2023-05-19T17:29:18.498Z,10.50
2023-05-19T17:31:48.923Z,10.10
2023-05-19T17:34:19.301Z,10.10
2023-05-19T17:36:50.524Z,9.40
2023-05-19T17:39:21.247Z,8.50
2023-05-19T17:41:51.667Z,8.70
2023-05-19T17:44:22.017Z,8.30
2023-05-19T17:46:52.773Z,7.90
2023-05-19T17:49:25.742Z,8.20
2023-05-19T17:51:57.672Z,6.40
2023-05-19T17:54:28.937Z,9.20
2023-05-19T17:57:03.381Z,8.10
2023-05-19T17:59:35.274Z,7.20
2023-05-19T18:02:07.215Z,8.20
2023-05-19T18:04:38.949Z,8.90
2023-05-19T18:07:11.932Z,9.90
2023-05-19T18:09:45.579Z,10.20
2023-05-19T18:12:16.335Z,10.20
2023-05-19T18:14:47.156Z,8.50
2023-05-19T18:17:17.469Z,10.90
2023-05-19T18:19:49.522Z,9.40
2023-05-19T18:22:20.112Z,7.90
2023-05-19T18:24:50.577Z,8.70
2023-05-19T18:27:20.894Z,9.30
2023-05-19T18:29:51.339Z,10.60
2023-05-19T18:32:21.738Z,11.80
2023-05-19T18:34:52.147Z,9.60
2023-05-19T18:37:22.818Z,12.40
2023-05-19T18:39:53.216Z,10.90
2023-05-19T18:42:25.636Z,10.50
2023-05-19T18:44:55.989Z,12.80
2023-05-19T18:47:26.674Z,10.90
2023-05-19T18:49:57.250Z,11.30
2023-05-19T18:52:28.705Z,12.00
2023-05-19T18:55:01.122Z,9.20
2023-05-19T18:57:31.681Z,11.30
2023-05-19T19:00:02.393Z,9.50
2023-05-19T19:02:32.759Z,12.60
2023-05-19T19:05:05.134Z,10.50
2023-05-19T19:07:35.635Z,11.60
2023-05-19T19:10:06.504Z,9.70
2023-05-19T19:12:37.057Z,11.70
2023-05-19T19:15:09.499Z,14.60
2023-05-19T19:17:41.094Z,9.50
2023-05-19T19:20:13.053Z,14.90
2023-05-19T19:22:43.469Z,11.50
2023-05-19T19:25:13.900Z,12.90
2023-05-19T19:27:44.205Z,11.00
2023-05-19T19:30:15.066Z,12.20
2023-05-19T19:32:45.502Z,13.20
2023-05-19T19:35:16.836Z,11.30
2023-05-19T19:37:47.917Z,11.80
2023-05-19T19:40:18.704Z,11.10
2023-05-19T19:42:49.091Z,14.70
2023-05-19T19:45:20.953Z,12.30
2023-05-19T19:47:51.739Z,12.20
2023-05-19T19:50:23.644Z,11.40
2023-05-19T19:52:54.020Z,11.90
2023-05-19T19:55:24.456Z,11.30
2023-05-19T19:57:54.806Z,15.00
2023-05-19T20:00:25.583Z,13.30
2023-05-19T20:03:04.903Z,10.40
2023-05-19T20:05:38.090Z,12.80
2023-05-19T20:08:08.633Z,13.80
2023-05-19T20:10:39.045Z,13.60
2023-05-19T20:13:09.501Z,13.60
2023-05-19T20:15:39.904Z,18.50
2023-05-19T20:18:10.870Z,12.30
2023-05-19T20:20:42.315Z,11.30
2023-05-19T20:23:13.446Z,12.20
2023-05-19T20:25:53.697Z,14.60
2023-05-19T20:28:33.264Z,12.50
2023-05-19T20:31:03.864Z,14.10
2023-05-19T20:33:34.308Z,15.80
2023-05-19T20:36:05.904Z,14.20
2023-05-19T20:38:36.289Z,15.60
2023-05-19T20:41:06.705Z,12.20
2023-05-19T20:43:37.118Z,12.50
2023-05-19T20:46:07.605Z,13.70
2023-05-19T20:48:38.181Z,14.90
2023-05-19T20:51:09.107Z,12.00
2023-05-19T20:53:39.476Z,16.00
2023-05-19T20:56:10.583Z,12.00
2023-05-19T20:58:41.134Z,16.70
2023-05-19T21:01:11.573Z,9.10
2023-05-19T21:03:42.026Z,12.80
2023-05-19T21:06:12.470Z,14.40
2023-05-19T21:08:42.884Z,13.70
2023-05-19T21:11:13.366Z,18.60
2023-05-19T21:13:43.744Z,14.60
2023-05-19T21:16:14.095Z,12.30
2023-05-19T21:18:44.457Z,14.50
2023-05-19T21:21:14.840Z,13.10
2023-05-19T21:23:45.236Z,14.80
2023-05-19T21:26:15.555Z,12.40
2023-05-19T21:28:46.296Z,14.90
2023-05-19T21:31:16.747Z,13.70
2023-05-19T21:33:47.245Z,13.80
2023-05-19T21:36:18.420Z,13.30
2023-05-19T21:38:48.841Z,19.50
2023-05-19T21:41:19.330Z,14.40
2023-05-19T21:43:49.688Z,13.00
2023-05-19T21:46:20.201Z,16.20
2023-05-19T21:48:50.584Z,16.50
2023-05-19T21:51:20.996Z,17.50
2023-05-19T21:53:51.453Z,16.20
2023-05-19T21:56:22.752Z,15.40
2023-05-19T21:58:53.209Z,18.70
2023-05-19T22:01:23.779Z,19.90
2023-05-19T22:03:55.054Z,19.00
2023-05-19T22:06:25.432Z,17.00
2023-05-19T22:08:55.873Z,19.30
2023-05-19T22:11:26.561Z,17.90
2023-05-19T22:13:56.918Z,17.70
2023-05-19T22:16:27.448Z,16.90
2023-05-19T22:18:58.206Z,18.20
2023-05-19T22:21:28.680Z,19.90
2023-05-19T22:23:59.089Z,16.10
2023-05-19T22:26:29.459Z,18.70
2023-05-19T22:28:59.858Z,24.60
2023-05-19T22:31:31.065Z,17.60
2023-05-19T22:34:01.466Z,18.50
2023-05-19T22:36:32.256Z,14.90
2023-05-19T22:39:02.672Z,15.10
2023-05-19T22:41:33.093Z,15.50
2023-05-19T22:44:03.613Z,20.30
2023-05-19T22:46:34.250Z,19.80
2023-05-19T22:49:04.784Z,19.60
2023-05-19T22:51:35.163Z,16.30
2023-05-19T22:54:05.919Z,17.60
2023-05-19T22:56:36.377Z,17.90
2023-05-19T22:59:07.005Z,20.00
2023-05-19T23:01:37.492Z,19.20
2023-05-19T23:04:08.259Z,16.20
2023-05-19T23:06:38.813Z,18.50
2023-05-19T23:09:09.213Z,16.80
2023-05-19T23:11:39.623Z,15.80
2023-05-19T23:14:09.983Z,16.30
2023-05-19T23:16:40.416Z,15.60
2023-05-19T23:19:11.065Z,15.00
2023-05-19T23:21:41.458Z,18.10
2023-05-19T23:24:11.796Z,16.60
2023-05-19T23:26:42.748Z,19.40
2023-05-19T23:29:15.131Z,19.30
2023-05-19T23:31:46.122Z,17.90
2023-05-19T23:34:16.593Z,16.70
2023-05-19T23:36:46.965Z,15.70
2023-05-19T23:39:17.428Z,15.60
2023-05-19T23:41:47.804Z,20.30
2023-05-19T23:44:19.131Z,17.40
2023-05-19T23:46:49.621Z,16.60
2023-05-19T23:49:20.439Z,14.40
2023-05-19T23:51:50.898Z,16.10
2023-05-19T23:54:21.260Z,18.10
2023-05-19T23:56:51.665Z,14.70
2023-05-19T23:59:22.129Z,13.90
